Time;durP1;ratioP1;P1;durP2;ratioP2;P2;SDS_P1;SDS_P2;PMS_P1;PMS_P2;Temp;Humidity;BMP_temperature;BMP_pressure;BME280_temperature;BME280_humidity;BME280_pressure;Samples;Min_cycle;Max_cycle;Signal;HPM_P1;HPM_P2
2023/04/30 00:01:58;;;;;;;5.20;2.75;;;;;;;;;;5023147;28;20041;-43
2023/04/30 00:04:23;;;;;;;4.60;3.67;;;;;;;;;;5022417;28;20034;-42
2023/04/30 00:06:49;;;;;;;4.25;2.78;;;;;;;;;;5022325;28;20433;-43
2023/04/30 00:09:14;;;;;;;7.38;2.63;;;;;;;;;;5023943;28;20022;-43
2023/04/30 00:11:40;;;;;;;7.28;2.90;;;;;;;;;;5022112;28;20041;-43
2023/04/30 00:14:05;;;;;;;7.35;3.05;;;;;;;;;;5021051;28;20026;-43
2023/04/30 00:16:31;;;;;;;9.00;3.15;;;;;;;;;;5023414;28;20048;-42
2023/04/30 00:18:56;;;;;;;7.35;2.60;;;;;;;;;;5021092;28;20061;-42
2023/04/30 00:21:21;;;;;;;6.32;2.70;;;;;;;;;;5025441;28;20474;-42
2023/04/30 00:23:47;;;;;;;4.90;2.80;;;;;;;;;;5023167;28;20029;-43
2023/04/30 00:26:12;;;;;;;3.60;2.70;;;;;;;;;;5019685;28;20061;-45
2023/04/30 00:28:37;;;;;;;7.07;2.72;;;;;;;;;;5024032;28;20629;-42
2023/04/30 00:31:05;;;;;;;5.03;3.17;;;;;;;;;;5020203;28;20081;-42
2023/04/30 00:33:31;;;;;;;8.85;2.92;;;;;;;;;;5021873;28;20029;-45
2023/04/30 00:35:56;;;;;;;3.70;2.70;;;;;;;;;;5020783;28;20110;-43
2023/04/30 00:38:22;;;;;;;7.05;3.00;;;;;;;;;;5019716;28;20482;-43
2023/04/30 00:40:48;;;;;;;5.13;2.92;;;;;;;;;;5022351;28;20068;-43
2023/04/30 00:43:13;;;;;;;11.60;3.10;;;;;;;;;;5021845;28;20024;-44
2023/04/30 00:45:39;;;;;;;8.38;3.15;;;;;;;;;;5020905;28;20037;-46
2023/04/30 00:48:04;;;;;;;9.73;3.20;;;;;;;;;;5020695;28;20030;-43
2023/04/30 00:50:30;;;;;;;8.73;3.17;;;;;;;;;;5022832;28;20505;-45
2023/04/30 00:52:56;;;;;;;7.93;3.20;;;;;;;;;;5024798;28;20025;-44
2023/04/30 00:55:21;;;;;;;8.73;3.33;;;;;;;;;;5023540;28;20036;-42
2023/04/30 00:57:47;;;;;;;6.97;3.15;;;;;;;;;;5020253;28;20040;-43
2023/04/30 01:00:13;;;;;;;5.05;2.78;;;;;;;;;;5021181;28;20038;-43
2023/04/30 01:02:39;;;;;;;4.35;3.40;;;;;;;;;;5020646;28;20057;-46
2023/04/30 01:05:06;;;;;;;7.22;3.38;;;;;;;;;;5021513;28;20131;-43
2023/04/30 01:07:32;;;;;;;7.13;3.55;;;;;;;;;;5020665;28;20049;-42
2023/04/30 01:09:58;;;;;;;8.35;3.60;;;;;;;;;;5022036;28;20026;-51
2023/04/30 01:12:48;;;;;;;5.90;3.22;;;;;;;;;;5022330;28;20041;-48
2023/04/30 01:15:40;;;;;;;5.18;3.30;;;;;;;;;;5020555;28;20029;-46
2023/04/30 01:18:09;;;;;;;;;;;;;;;;;;5020280;28;20036;-42
2023/04/30 01:20:43;;;;;;;6.72;3.05;;;;;;;;;;5020950;28;19921;-44
2023/04/30 01:23:31;;;;;;;6.35;3.08;;;;;;;;;;5023118;28;20075;-43
2023/04/30 01:26:12;;;;;;;8.93;3.67;;;;;;;;;;5016878;28;20096;-42
2023/04/30 01:28:39;;;;;;;5.88;3.67;;;;;;;;;;5020068;28;20938;-45
2023/04/30 01:31:13;;;;;;;6.57;3.20;;;;;;;;;;5020301;28;20108;-44
2023/04/30 01:33:39;;;;;;;7.75;3.55;;;;;;;;;;5023415;28;20479;-42
2023/04/30 01:36:26;;;;;;;8.05;3.92;;;;;;;;;;5019702;28;20044;-42
2023/04/30 01:39:07;;;;;;;2.83;2.63;;;;;;;;;;5021424;28;20084;-42
2023/04/30 01:41:59;;;;;;;6.97;3.65;;;;;;;;;;5019944;28;20175;-43
2023/04/30 01:45:02;;;;;;;11.38;3.85;;;;;;;;;;5020325;28;20120;-45
2023/04/30 01:47:40;;;;;;;8.55;3.53;;;;;;;;;;5020316;28;20420;-42
2023/04/30 01:50:37;;;;;;;9.30;4.00;;;;;;;;;;5020814;28;20030;-43
2023/04/30 01:53:08;;;;;;;7.72;3.83;;;;;;;;;;5015025;28;20418;-45
2023/04/30 01:55:52;;;;;;;6.40;3.97;;;;;;;;;;5022111;28;20046;-42
2023/04/30 01:58:21;;;;;;;5.85;3.55;;;;;;;;;;5025222;28;20114;-47
2023/04/30 02:00:46;;;;;;;6.07;3.45;;;;;;;;;;5025471;28;20056;-45
2023/04/30 02:03:11;;;;;;;6.93;3.92;;;;;;;;;;5025793;28;20030;-45
2023/04/30 02:05:37;;;;;;;8.20;3.83;;;;;;;;;;5026159;28;20099;-48
2023/04/30 02:08:02;;;;;;;7.82;3.80;;;;;;;;;;5024846;28;20036;-47
2023/04/30 02:10:29;;;;;;;7.00;3.22;;;;;;;;;;5025883;28;20048;-49
2023/04/30 02:12:54;;;;;;;5.63;3.45;;;;;;;;;;5024480;28;20032;-42
2023/04/30 02:15:20;;;;;;;6.80;3.38;;;;;;;;;;5022767;28;20029;-44
2023/04/30 02:17:45;;;;;;;5.03;3.60;;;;;;;;;;5026071;28;20033;-45
2023/04/30 02:20:10;;;;;;;9.73;3.88;;;;;;;;;;5023667;28;20029;-47
2023/04/30 02:22:36;;;;;;;7.32;4.50;;;;;;;;;;5026576;28;20056;-49
2023/04/30 02:25:02;;;;;;;10.20;4.32;;;;;;;;;;5025850;28;20430;-46
2023/04/30 02:27:29;;;;;;;9.82;4.10;;;;;;;;;;5023645;28;20087;-43
2023/04/30 02:29:55;;;;;;;6.55;3.95;;;;;;;;;;5025566;28;20032;-45
2023/04/30 02:32:20;;;;;;;13.02;5.30;;;;;;;;;;5023946;28;20038;-43
2023/04/30 02:34:46;;;;;;;9.60;6.18;;;;;;;;;;5024178;28;20061;-44
2023/04/30 02:37:11;;;;;;;8.57;5.57;;;;;;;;;;5023312;28;20037;-42
2023/04/30 02:39:37;;;;;;;12.52;6.40;;;;;;;;;;5024885;28;20025;-43
2023/04/30 02:42:03;;;;;;;10.98;5.70;;;;;;;;;;5021196;28;20041;-43
2023/04/30 02:44:28;;;;;;;9.95;6.57;;;;;;;;;;5022084;28;20025;-44
2023/04/30 02:46:54;;;;;;;14.63;7.25;;;;;;;;;;5025101;28;20048;-49
2023/04/30 02:49:19;;;;;;;16.10;7.85;;;;;;;;;;5026222;28;20032;-45
2023/04/30 02:51:45;;;;;;;14.90;7.63;;;;;;;;;;5022921;28;20493;-45
2023/04/30 02:54:10;;;;;;;13.75;7.25;;;;;;;;;;5023119;28;20079;-48
2023/04/30 02:56:37;;;;;;;14.43;6.45;;;;;;;;;;5020532;28;20083;-47
2023/04/30 02:59:03;;;;;;;15.98;6.70;;;;;;;;;;5026444;28;20033;-47
2023/04/30 03:01:28;;;;;;;13.57;5.88;;;;;;;;;;5022682;28;20040;-44
2023/04/30 03:03:53;;;;;;;10.07;5.50;;;;;;;;;;5024673;28;20141;-43
2023/04/30 03:06:19;;;;;;;10.98;6.03;;;;;;;;;;5021681;28;20064;-45
2023/04/30 03:08:44;;;;;;;9.32;5.53;;;;;;;;;;5021624;28;20034;-47
2023/04/30 03:11:10;;;;;;;7.15;5.20;;;;;;;;;;5024117;28;20041;-47
2023/04/30 03:13:35;;;;;;;9.82;6.25;;;;;;;;;;5021745;28;20060;-48
2023/04/30 03:16:03;;;;;;;9.88;5.53;;;;;;;;;;5021722;28;20077;-47
2023/04/30 03:18:29;;;;;;;13.48;6.47;;;;;;;;;;5023405;28;20033;-49
2023/04/30 03:20:55;;;;;;;12.10;6.43;;;;;;;;;;5024424;28;20051;-48
2023/04/30 03:23:20;;;;;;;9.07;5.20;;;;;;;;;;5022968;28;20018;-43
2023/04/30 03:25:46;;;;;;;10.07;5.50;;;;;;;;;;5021798;28;20128;-43
2023/04/30 03:28:12;;;;;;;12.52;5.88;;;;;;;;;;5024338;28;20037;-46
2023/04/30 03:30:37;;;;;;;12.27;6.22;;;;;;;;;;5023307;28;20041;-43
2023/04/30 03:33:05;;;;;;;10.38;5.80;;;;;;;;;;5022978;28;20073;-46
2023/04/30 03:35:31;;;;;;;10.57;5.65;;;;;;;;;;5021720;28;20040;-46
2023/04/30 03:37:56;;;;;;;11.30;6.03;;;;;;;;;;5021863;28;20032;-49
2023/04/30 03:40:22;;;;;;;9.32;5.13;;;;;;;;;;5023299;28;20031;-46
2023/04/30 03:42:47;;;;;;;12.88;5.20;;;;;;;;;;5023959;28;20017;-45
2023/04/30 03:45:13;;;;;;;8.38;5.20;;;;;;;;;;5023652;28;20039;-45
2023/04/30 03:47:38;;;;;;;12.63;5.10;;;;;;;;;;5024177;28;20049;-51
2023/04/30 03:50:04;;;;;;;13.23;5.28;;;;;;;;;;5022842;28;20517;-44
2023/04/30 03:52:30;;;;;;;8.07;4.22;;;;;;;;;;5023747;28;20053;-48
2023/04/30 03:54:55;;;;;;;9.32;4.82;;;;;;;;;;5019498;28;20034;-49
2023/04/30 03:57:21;;;;;;;7.95;4.25;;;;;;;;;;5023450;28;20037;-49
2023/04/30 03:59:47;;;;;;;9.15;4.32;;;;;;;;;;5023649;28;20180;-49
2023/04/30 04:02:13;;;;;;;7.70;4.00;;;;;;;;;;5021841;28;20034;-49
2023/04/30 04:04:38;;;;;;;6.97;3.72;;;;;;;;;;5022950;28;20499;-43
2023/04/30 04:07:03;;;;;;;9.32;3.75;;;;;;;;;;5022172;28;20042;-44
2023/04/30 04:09:29;;;;;;;5.60;3.13;;;;;;;;;;5022927;28;20024;-47
2023/04/30 04:11:55;;;;;;;7.55;3.28;;;;;;;;;;5020094;28;20034;-49
2023/04/30 04:14:20;;;;;;;9.27;3.13;;;;;;;;;;5023099;28;20049;-48
2023/04/30 04:16:45;;;;;;;9.90;3.25;;;;;;;;;;5019424;28;20038;-48
2023/04/30 04:19:12;;;;;;;8.98;3.30;;;;;;;;;;5023552;28;20037;-46
2023/04/30 04:21:37;;;;;;;4.25;2.92;;;;;;;;;;5016936;28;20051;-45
2023/04/30 04:24:07;;;;;;;7.75;3.15;;;;;;;;;;5022427;28;20033;-49
2023/04/30 04:26:36;;;;;;;8.45;3.50;;;;;;;;;;5021673;28;20445;-44
2023/04/30 04:29:03;;;;;;;5.72;3.03;;;;;;;;;;5023351;28;20041;-49
2023/04/30 04:31:28;;;;;;;7.53;3.03;;;;;;;;;;5023679;28;20038;-52
2023/04/30 04:33:57;;;;;;;4.47;2.60;;;;;;;;;;5022525;28;20485;-52
2023/04/30 04:36:27;;;;;;;6.57;2.88;;;;;;;;;;5022149;28;20034;-50
2023/04/30 04:38:54;;;;;;;6.80;3.15;;;;;;;;;;5019485;28;20117;-48
2023/04/30 04:41:20;;;;;;;7.40;3.17;;;;;;;;;;5021789;28;20477;-51
2023/04/30 04:43:46;;;;;;;5.82;3.13;;;;;;;;;;5019467;28;20065;-46
2023/04/30 04:46:11;;;;;;;6.70;3.50;;;;;;;;;;5024122;28;20040;-49
2023/04/30 04:48:36;;;;;;;5.00;3.20;;;;;;;;;;5023075;28;20026;-49
2023/04/30 04:51:02;;;;;;;4.57;3.03;;;;;;;;;;5023575;28;20518;-43
2023/04/30 04:53:27;;;;;;;6.43;3.15;;;;;;;;;;5023563;28;20040;-48
2023/04/30 04:55:53;;;;;;;9.00;3.47;;;;;;;;;;5022816;28;20025;-47
2023/04/30 04:58:18;;;;;;;8.43;3.25;;;;;;;;;;5022042;28;20037;-47
2023/04/30 05:00:44;;;;;;;6.75;3.97;;;;;;;;;;5021653;28;20506;-47
2023/04/30 05:03:09;;;;;;;10.77;4.53;;;;;;;;;;5023275;28;20037;-46
2023/04/30 05:05:34;;;;;;;10.77;4.47;;;;;;;;;;5020620;28;20434;-49
2023/04/30 05:08:00;;;;;;;7.78;3.63;;;;;;;;;;5019188;28;20038;-51
2023/04/30 05:10:25;;;;;;;10.30;4.10;;;;;;;;;;5021978;28;20021;-45
2023/04/30 05:12:51;;;;;;;7.82;3.80;;;;;;;;;;5021973;28;20018;-49
2023/04/30 05:15:16;;;;;;;8.48;4.03;;;;;;;;;;5020396;28;20058;-49
2023/04/30 05:17:42;;;;;;;8.10;4.05;;;;;;;;;;5020604;28;20037;-49
2023/04/30 05:20:08;;;;;;;8.02;4.13;;;;;;;;;;5020956;28;20034;-50
2023/04/30 05:22:33;;;;;;;8.52;3.72;;;;;;;;;;5021524;28;20045;-50
2023/04/30 05:24:59;;;;;;;10.45;3.88;;;;;;;;;;5021520;28;20036;-45
2023/04/30 05:27:24;;;;;;;9.40;3.88;;;;;;;;;;5022471;28;20056;-45
2023/04/30 05:29:49;;;;;;;7.95;3.50;;;;;;;;;;5022434;28;20026;-43
2023/04/30 05:32:15;;;;;;;6.95;3.85;;;;;;;;;;5025387;28;20033;-42
2023/04/30 05:34:40;;;;;;;11.10;4.15;;;;;;;;;;5025146;28;20026;-44
2023/04/30 05:37:05;;;;;;;9.00;3.35;;;;;;;;;;5023840;28;20055;-42
2023/04/30 05:39:31;;;;;;;3.95;2.88;;;;;;;;;;5025591;28;20802;-43
2023/04/30 05:41:56;;;;;;;8.43;2.80;;;;;;;;;;5025538;28;20025;-43
2023/04/30 05:44:21;;;;;;;4.88;2.97;;;;;;;;;;5023951;28;20120;-43
2023/04/30 05:46:47;;;;;;;7.47;3.03;;;;;;;;;;5023516;28;20049;-42
2023/04/30 05:49:12;;;;;;;9.80;2.78;;;;;;;;;;5025129;28;20113;-43
2023/04/30 05:51:37;;;;;;;8.85;3.35;;;;;;;;;;5024266;28;20029;-44
2023/04/30 05:54:03;;;;;;;4.72;2.63;;;;;;;;;;5024471;28;20042;-43
2023/04/30 05:56:28;;;;;;;5.88;2.67;;;;;;;;;;5026357;28;20041;-44
2023/04/30 05:58:54;;;;;;;8.30;3.47;;;;;;;;;;5025995;28;20593;-42
2023/04/30 06:01:20;;;;;;;6.53;2.53;;;;;;;;;;5025417;28;20031;-42
2023/04/30 06:03:45;;;;;;;8.27;3.00;;;;;;;;;;5021868;28;20089;-44
2023/04/30 06:06:11;;;;;;;9.55;2.60;;;;;;;;;;5022874;28;20045;-43
2023/04/30 06:08:36;;;;;;;5.35;2.70;;;;;;;;;;5022762;28;20116;-42
2023/04/30 06:11:04;;;;;;;5.97;2.85;;;;;;;;;;5023523;28;20041;-43
2023/04/30 06:13:30;;;;;;;3.85;2.75;;;;;;;;;;5023189;28;20045;-43
2023/04/30 06:15:56;;;;;;;4.72;2.92;;;;;;;;;;5024269;28;20503;-43
2023/04/30 06:18:21;;;;;;;8.55;3.40;;;;;;;;;;5023049;28;20040;-42
2023/04/30 06:20:47;;;;;;;4.38;2.80;;;;;;;;;;5025278;28;20508;-43
2023/04/30 06:23:12;;;;;;;7.40;3.25;;;;;;;;;;5024917;28;20037;-43
2023/04/30 06:25:38;;;;;;;5.03;2.90;;;;;;;;;;5024856;28;20037;-43
2023/04/30 06:28:03;;;;;;;6.82;3.40;;;;;;;;;;5024009;28;20025;-42
2023/04/30 06:30:30;;;;;;;6.25;3.17;;;;;;;;;;5024702;28;20087;-42
2023/04/30 06:32:56;;;;;;;7.57;2.90;;;;;;;;;;5023800;28;20589;-43
2023/04/30 06:35:21;;;;;;;6.65;3.47;;;;;;;;;;5022834;28;20116;-43
2023/04/30 06:37:47;;;;;;;5.60;3.05;;;;;;;;;;5027844;28;20029;-42
2023/04/30 06:40:12;;;;;;;5.85;2.60;;;;;;;;;;5021619;28;20512;-42
2023/04/30 06:42:38;;;;;;;6.03;3.47;;;;;;;;;;5022281;28;20028;-42
2023/04/30 06:45:05;;;;;;;11.43;3.20;;;;;;;;;;5024221;28;20071;-44
2023/04/30 06:47:35;;;;;;;9.93;3.25;;;;;;;;;;5022562;28;20120;-42
2023/04/30 06:50:01;;;;;;;7.22;2.83;;;;;;;;;;5022243;28;20583;-42
2023/04/30 06:52:26;;;;;;;7.70;3.38;;;;;;;;;;5019714;28;20128;-43
2023/04/30 06:54:52;;;;;;;4.57;2.92;;;;;;;;;;5023308;28;20112;-45
2023/04/30 06:57:17;;;;;;;4.85;3.03;;;;;;;;;;5024196;28;20053;-44
2023/04/30 06:59:43;;;;;;;9.68;4.25;;;;;;;;;;5023339;28;20434;-43
2023/04/30 07:02:08;;;;;;;9.90;4.15;;;;;;;;;;5021699;28;20042;-42
2023/04/30 07:04:34;;;;;;;6.57;3.05;;;;;;;;;;5021635;28;20431;-43
2023/04/30 07:07:00;;;;;;;7.30;3.15;;;;;;;;;;5020841;28;20038;-42
2023/04/30 07:09:29;;;;;;;9.85;3.10;;;;;;;;;;5025069;28;20056;-42
2023/04/30 07:11:56;;;;;;;6.75;2.92;;;;;;;;;;5020242;28;20048;-42
2023/04/30 07:14:21;;;;;;;8.82;3.22;;;;;;;;;;5022068;28;20069;-42
2023/04/30 07:16:49;;;;;;;10.75;4.57;;;;;;;;;;5021680;28;20972;-44
2023/04/30 07:19:14;;;;;;;9.15;5.55;;;;;;;;;;5024250;28;20079;-45
2023/04/30 07:21:39;;;;;;;10.18;4.50;;;;;;;;;;5024558;28;20029;-42
2023/04/30 07:24:05;;;;;;;5.03;2.65;;;;;;;;;;5022669;28;20493;-43
2023/04/30 07:26:30;;;;;;;6.55;2.95;;;;;;;;;;5022107;28;20037;-43
2023/04/30 07:28:55;;;;;;;9.15;3.17;;;;;;;;;;5024414;28;20044;-45
2023/04/30 07:31:21;;;;;;;6.28;2.75;;;;;;;;;;5022822;28;20394;-42
2023/04/30 07:33:49;;;;;;;6.50;3.40;;;;;;;;;;5026298;28;20053;-42
2023/04/30 07:36:14;;;;;;;9.00;3.35;;;;;;;;;;5022956;28;20071;-42
2023/04/30 07:38:39;;;;;;;7.00;2.70;;;;;;;;;;5023422;28;20025;-42
2023/04/30 07:41:05;;;;;;;7.18;3.28;;;;;;;;;;5019968;28;20049;-43
2023/04/30 07:43:30;;;;;;;6.93;3.28;;;;;;;;;;5023202;28;20053;-44
2023/04/30 07:45:56;;;;;;;6.18;3.05;;;;;;;;;;5023239;28;20038;-42
2023/04/30 07:48:22;;;;;;;12.27;3.38;;;;;;;;;;5021681;28;20026;-43
2023/04/30 07:50:47;;;;;;;9.30;3.47;;;;;;;;;;5024525;28;20056;-42
2023/04/30 07:53:13;;;;;;;6.18;3.00;;;;;;;;;;5022023;28;20033;-42
2023/04/30 07:55:38;;;;;;;10.07;8.15;;;;;;;;;;5022226;28;20069;-47
2023/04/30 07:58:03;;;;;;;6.18;3.42;;;;;;;;;;5024285;28;20037;-45
2023/04/30 08:00:30;;;;;;;8.15;3.45;;;;;;;;;;5022495;28;20050;-42
2023/04/30 08:02:55;;;;;;;10.00;3.63;;;;;;;;;;5025118;28;20028;-43
2023/04/30 08:05:20;;;;;;;7.60;4.50;;;;;;;;;;5019511;28;20033;-42
2023/04/30 08:07:46;;;;;;;12.73;4.28;;;;;;;;;;5021591;28;20862;-43
2023/04/30 08:10:11;;;;;;;7.90;3.85;;;;;;;;;;5021908;28;20025;-42
2023/04/30 08:12:37;;;;;;;13.75;6.07;;;;;;;;;;5023063;28;20025;-42
2023/04/30 08:15:06;;;;;;;9.93;5.47;;;;;;;;;;5017650;28;20080;-44
2023/04/30 08:17:32;;;;;;;14.43;4.50;;;;;;;;;;5023152;28;20032;-45
2023/04/30 08:19:57;;;;;;;6.40;3.50;;;;;;;;;;5024101;28;20486;-43
2023/04/30 08:22:23;;;;;;;13.00;4.80;;;;;;;;;;5021876;28;20044;-43
2023/04/30 08:24:48;;;;;;;8.57;4.30;;;;;;;;;;5023551;28;20674;-42
2023/04/30 08:27:15;;;;;;;9.38;3.22;;;;;;;;;;5020368;28;20041;-44
2023/04/30 08:29:40;;;;;;;7.95;4.18;;;;;;;;;;5023290;28;20049;-42
2023/04/30 08:32:05;;;;;;;9.48;3.58;;;;;;;;;;5023845;28;20116;-44
2023/04/30 08:34:31;;;;;;;13.75;4.00;;;;;;;;;;5019899;28;20080;-43
2023/04/30 08:36:57;;;;;;;9.32;4.15;;;;;;;;;;5021679;28;20057;-44
2023/04/30 08:39:23;;;;;;;12.27;4.32;;;;;;;;;;5023130;28;20032;-43
2023/04/30 08:41:55;;;;;;;8.32;4.25;;;;;;;;;;5021994;28;20040;-42
2023/04/30 08:44:25;;;;;;;11.50;4.60;;;;;;;;;;5023537;28;20077;-45
2023/04/30 08:46:55;;;;;;;16.13;5.03;;;;;;;;;;5018788;28;20129;-42
2023/04/30 08:49:21;;;;;;;8.10;4.38;;;;;;;;;;5022607;28;20057;-44
2023/04/30 08:51:47;;;;;;;12.13;4.70;;;;;;;;;;5020885;28;20041;-43
2023/04/30 08:54:13;;;;;;;14.02;5.60;;;;;;;;;;5024967;28;20104;-45
2023/04/30 08:56:41;;;;;;;16.45;6.10;;;;;;;;;;5018605;28;20406;-44
2023/04/30 08:59:07;;;;;;;17.95;6.40;;;;;;;;;;5019179;28;20022;-42
2023/04/30 09:01:33;;;;;;;13.80;5.38;;;;;;;;;;5022011;28;20059;-44
2023/04/30 09:03:59;;;;;;;12.05;5.65;;;;;;;;;;5018830;28;20115;-43
2023/04/30 09:06:26;;;;;;;14.10;6.13;;;;;;;;;;5024452;28;20455;-42
2023/04/30 09:08:53;;;;;;;10.60;6.50;;;;;;;;;;5026786;28;20044;-46
2023/04/30 09:11:29;;;;;;;13.52;6.70;;;;;;;;;;5026006;28;20054;-42
2023/04/30 09:13:57;;;;;;;11.82;6.85;;;;;;;;;;5022779;28;20955;-46
2023/04/30 09:16:24;;;;;;;11.88;6.97;;;;;;;;;;5025272;28;20045;-43
2023/04/30 09:18:50;;;;;;;13.18;8.13;;;;;;;;;;5027232;28;20072;-43
2023/04/30 09:21:16;;;;;;;16.23;7.00;;;;;;;;;;5024563;28;20041;-42
2023/04/30 09:24:02;;;;;;;15.57;8.60;;;;;;;;;;5024333;28;20048;-42
2023/04/30 09:26:36;;;;;;;16.08;8.68;;;;;;;;;;5022234;28;20124;-44
2023/04/30 09:29:06;;;;;;;18.02;8.98;;;;;;;;;;5025784;28;20490;-42
2023/04/30 09:31:32;;;;;;;14.05;9.60;;;;;;;;;;5022486;28;20041;-45
2023/04/30 09:33:58;;;;;;;11.73;8.95;;;;;;;;;;5023626;28;20036;-46
2023/04/30 09:36:23;;;;;;;14.10;9.13;;;;;;;;;;5025168;28;20045;-43
2023/04/30 09:38:49;;;;;;;15.85;9.68;;;;;;;;;;5025463;28;20028;-42
2023/04/30 09:41:26;;;;;;;13.13;9.90;;;;;;;;;;5024981;28;20048;-43
2023/04/30 09:43:52;;;;;;;15.48;10.55;;;;;;;;;;5024848;28;20025;-42
2023/04/30 09:46:19;;;;;;;11.93;9.70;;;;;;;;;;5024108;28;20041;-42
2023/04/30 09:48:44;;;;;;;13.63;10.00;;;;;;;;;;5025438;28;20421;-43
2023/04/30 09:51:10;;;;;;;14.02;10.38;;;;;;;;;;5026370;28;20026;-43
2023/04/30 09:53:41;;;;;;;15.73;9.63;;;;;;;;;;5027765;28;20449;-43
2023/04/30 09:56:07;;;;;;;13.23;8.88;;;;;;;;;;5021702;28;20141;-45
2023/04/30 09:58:39;;;;;;;11.32;8.32;;;;;;;;;;5010536;28;20386;-45
2023/04/30 10:01:07;;;;;;;12.23;8.85;;;;;;;;;;5026856;28;20073;-45
2023/04/30 10:03:34;;;;;;;14.43;9.55;;;;;;;;;;5021778;28;20486;-42
2023/04/30 10:06:00;;;;;;;10.73;8.18;;;;;;;;;;5025288;28;20638;-44
2023/04/30 10:08:48;;;;;;;12.90;8.82;;;;;;;;;;5025130;28;20033;-45
2023/04/30 10:11:20;;;;;;;12.80;8.38;;;;;;;;;;5024324;28;20045;-42
2023/04/30 10:14:01;;;;;;;12.48;8.90;;;;;;;;;;5021347;28;20120;-48
2023/04/30 10:16:36;;;;;;;10.63;8.10;;;;;;;;;;5021793;28;20052;-43
2023/04/30 10:19:19;;;;;;;11.32;8.30;;;;;;;;;;5022990;28;20053;-48
2023/04/30 10:21:45;;;;;;;10.38;7.03;;;;;;;;;;5023427;28;20037;-42
2023/04/30 10:24:18;;;;;;;20.45;7.15;;;;;;;;;;5022221;28;20535;-44
2023/04/30 10:26:44;;;;;;;10.45;6.43;;;;;;;;;;5025021;28;20056;-43
2023/04/30 10:29:12;;;;;;;11.02;7.05;;;;;;;;;;5026308;28;20045;-43
2023/04/30 10:31:40;;;;;;;12.20;7.25;;;;;;;;;;5024879;28;20536;-43
2023/04/30 10:34:27;;;;;;;12.15;7.10;;;;;;;;;;5022369;28;20120;-43
2023/04/30 10:36:59;;;;;;;12.30;6.15;;;;;;;;;;5025011;28;20371;-46
2023/04/30 10:39:29;;;;;;;10.90;6.60;;;;;;;;;;5024427;28;20022;-43
2023/04/30 10:42:05;;;;;;;10.50;6.57;;;;;;;;;;5025580;28;20042;-42
2023/04/30 10:44:36;;;;;;;11.98;6.70;;;;;;;;;;5023782;28;20025;-45
2023/04/30 10:47:03;;;;;;;10.32;6.50;;;;;;;;;;5024425;28;20405;-42
2023/04/30 10:49:29;;;;;;;7.22;6.30;;;;;;;;;;5024874;28;20037;-45
2023/04/30 10:51:59;;;;;;;10.40;6.88;;;;;;;;;;5024224;28;20041;-43
2023/04/30 10:54:29;;;;;;;7.30;6.57;;;;;;;;;;5024478;28;20124;-43
2023/04/30 10:57:16;;;;;;;7.63;6.40;;;;;;;;;;5025153;28;20046;-48
2023/04/30 11:00:06;;;;;;;8.88;5.72;;;;;;;;;;5024145;28;20029;-43
2023/04/30 11:02:43;;;;;;;9.55;5.63;;;;;;;;;;5022080;28;20041;-45
2023/04/30 11:05:10;;;;;;;7.38;5.80;;;;;;;;;;5021646;28;20425;-45
2023/04/30 11:07:36;;;;;;;7.18;6.03;;;;;;;;;;5022715;28;20049;-43
2023/04/30 11:10:02;;;;;;;5.85;5.35;;;;;;;;;;5022431;28;20489;-42
2023/04/30 11:12:27;;;;;;;6.57;5.80;;;;;;;;;;5024048;28;20155;-45
2023/04/30 11:15:13;;;;;;;6.68;5.78;;;;;;;;;;5024386;28;20032;-45
2023/04/30 11:17:38;;;;;;;6.32;5.43;;;;;;;;;;5024446;28;20045;-42
2023/04/30 11:20:04;;;;;;;6.80;5.72;;;;;;;;;;5020881;28;20433;-44
2023/04/30 11:22:34;;;;;;;9.38;6.38;;;;;;;;;;5024472;28;20041;-42
2023/04/30 11:25:08;;;;;;;9.40;5.88;;;;;;;;;;5026227;28;20099;-44
2023/04/30 11:27:40;;;;;;;6.55;5.20;;;;;;;;;;5023147;28;20136;-43
2023/04/30 11:30:16;;;;;;;10.48;6.07;;;;;;;;;;5024087;28;20029;-43
2023/04/30 11:32:47;;;;;;;6.82;6.10;;;;;;;;;;5023994;28;20374;-48
2023/04/30 11:35:17;;;;;;;7.82;6.95;;;;;;;;;;5022878;28;20025;-43
2023/04/30 11:37:43;;;;;;;7.40;6.70;;;;;;;;;;5022962;28;20017;-42
2023/04/30 11:40:11;;;;;;;11.18;7.75;;;;;;;;;;5024778;28;20029;-42
2023/04/30 11:42:40;;;;;;;10.10;8.40;;;;;;;;;;5023065;28;20552;-45
2023/04/30 11:45:11;;;;;;;7.88;7.07;;;;;;;;;;5024265;28;20044;-43
2023/04/30 11:47:45;;;;;;;11.52;8.15;;;;;;;;;;5020903;28;20624;-43
2023/04/30 11:50:15;;;;;;;12.60;7.40;;;;;;;;;;5023157;28;21012;-41
2023/04/30 11:52:42;;;;;;;9.32;8.35;;;;;;;;;;5022523;28;20025;-45
2023/04/30 11:55:14;;;;;;;12.65;8.18;;;;;;;;;;5021284;28;20029;-43
2023/04/30 11:57:41;;;;;;;10.88;7.97;;;;;;;;;;5023793;28;20129;-49
2023/04/30 12:00:09;;;;;;;9.20;7.88;;;;;;;;;;5025232;28;20040;-43
2023/04/30 12:02:35;;;;;;;10.88;7.53;;;;;;;;;;5023307;28;20128;-43
2023/04/30 12:05:01;;;;;;;8.40;7.50;;;;;;;;;;5020742;28;21155;-46
2023/04/30 12:07:26;;;;;;;11.55;8.63;;;;;;;;;;5024454;28;20092;-46
2023/04/30 12:09:55;;;;;;;12.35;9.55;;;;;;;;;;5023325;28;20092;-44
2023/04/30 12:12:30;;;;;;;10.70;7.65;;;;;;;;;;5021791;28;20038;-45
2023/04/30 12:14:55;;;;;;;9.90;7.32;;;;;;;;;;5024177;28;20125;-43
2023/04/30 12:17:32;;;;;;;11.25;7.90;;;;;;;;;;5022111;28;20116;-46
2023/04/30 12:19:57;;;;;;;9.05;7.57;;;;;;;;;;5023351;28;20034;-43
2023/04/30 12:22:23;;;;;;;9.35;7.70;;;;;;;;;;5022435;28;20038;-43
2023/04/30 12:24:48;;;;;;;7.32;6.47;;;;;;;;;;5020056;28;20033;-43
2023/04/30 12:27:14;;;;;;;7.95;6.95;;;;;;;;;;5024388;28;20461;-46
2023/04/30 12:29:43;;;;;;;8.98;6.95;;;;;;;;;;5023904;28;20033;-46
2023/04/30 12:32:09;;;;;;;8.80;6.57;;;;;;;;;;5022937;28;20077;-43
2023/04/30 12:34:37;;;;;;;7.93;6.30;;;;;;;;;;5023181;28;20381;-46
2023/04/30 12:37:02;;;;;;;7.88;6.32;;;;;;;;;;5023107;28;20052;-46
2023/04/30 12:39:32;;;;;;;10.15;5.88;;;;;;;;;;5021979;28;20037;-45
2023/04/30 12:41:59;;;;;;;9.40;6.50;;;;;;;;;;5024368;28;20030;-43
2023/04/30 12:44:28;;;;;;;11.05;6.97;;;;;;;;;;5021086;28;20047;-43
2023/04/30 12:46:56;;;;;;;7.55;6.53;;;;;;;;;;5020937;28;20042;-48
2023/04/30 12:49:26;;;;;;;7.60;6.43;;;;;;;;;;5021687;28;20679;-43
2023/04/30 12:52:07;;;;;;;7.05;6.38;;;;;;;;;;5023360;28;20045;-43
2023/04/30 12:54:33;;;;;;;7.82;6.97;;;;;;;;;;5021137;28;20417;-43
2023/04/30 12:57:10;;;;;;;7.35;6.40;;;;;;;;;;5019895;28;20045;-47
2023/04/30 12:59:37;;;;;;;8.93;6.30;;;;;;;;;;5025061;28;20104;-43
2023/04/30 13:02:07;;;;;;;11.10;6.03;;;;;;;;;;5021868;28;20052;-46
2023/04/30 13:04:33;;;;;;;7.78;5.53;;;;;;;;;;5021917;28;20378;-49
2023/04/30 13:06:58;;;;;;;7.03;6.05;;;;;;;;;;5022539;28;20026;-48
2023/04/30 13:09:23;;;;;;;10.07;6.28;;;;;;;;;;5022793;28;20033;-46
2023/04/30 13:11:49;;;;;;;8.10;6.07;;;;;;;;;;5022790;28;20049;-46
2023/04/30 13:14:16;;;;;;;6.05;5.45;;;;;;;;;;5019430;28;20041;-43
2023/04/30 13:16:42;;;;;;;9.70;6.13;;;;;;;;;;5018009;28;20121;-49
2023/04/30 13:19:07;;;;;;;10.02;6.00;;;;;;;;;;5019616;28;20109;-48
2023/04/30 13:21:32;;;;;;;10.20;5.65;;;;;;;;;;5020967;28;20050;-47
2023/04/30 13:23:58;;;;;;;6.10;5.60;;;;;;;;;;5023756;28;20029;-45
2023/04/30 13:26:25;;;;;;;6.55;5.88;;;;;;;;;;5021699;28;20450;-49
2023/04/30 13:28:51;;;;;;;9.02;6.43;;;;;;;;;;5021460;28;20398;-48
2023/04/30 13:31:16;;;;;;;6.18;5.57;;;;;;;;;;5021659;28;20037;-49
2023/04/30 13:33:42;;;;;;;8.02;6.25;;;;;;;;;;5021214;28;20030;-43
2023/04/30 13:36:07;;;;;;;7.88;5.00;;;;;;;;;;5018648;28;20033;-50
2023/04/30 13:38:33;;;;;;;7.05;4.80;;;;;;;;;;5023815;28;20034;-51
2023/04/30 13:40:58;;;;;;;5.28;4.50;;;;;;;;;;5019554;28;20477;-50
2023/04/30 13:43:23;;;;;;;4.75;4.35;;;;;;;;;;5021329;28;20076;-51
2023/04/30 13:45:50;;;;;;;7.38;4.90;;;;;;;;;;5018862;28;20033;-52
2023/04/30 13:48:15;;;;;;;8.38;4.47;;;;;;;;;;5020494;28;20025;-44
2023/04/30 13:50:41;;;;;;;4.75;4.30;;;;;;;;;;5019579;28;20038;-50
2023/04/30 13:53:06;;;;;;;7.03;4.10;;;;;;;;;;5026522;28;20452;-46
2023/04/30 13:55:32;;;;;;;7.05;4.43;;;;;;;;;;5023940;28;20048;-43
2023/04/30 13:57:57;;;;;;;6.90;4.25;;;;;;;;;;5025391;28;20076;-49
2023/04/30 14:00:23;;;;;;;10.05;4.18;;;;;;;;;;5025461;28;20056;-48
2023/04/30 14:02:48;;;;;;;6.38;4.10;;;;;;;;;;5022859;28;20079;-46
2023/04/30 14:05:14;;;;;;;4.32;3.92;;;;;;;;;;5023811;28;20109;-45
2023/04/30 14:07:40;;;;;;;4.00;3.67;;;;;;;;;;5022710;28;20087;-48
2023/04/30 14:10:06;;;;;;;3.67;3.38;;;;;;;;;;5021774;28;20469;-49
2023/04/30 14:12:31;;;;;;;7.38;4.20;;;;;;;;;;5025311;28;20034;-51
2023/04/30 14:14:57;;;;;;;7.50;4.68;;;;;;;;;;5025451;28;20180;-48
2023/04/30 14:17:24;;;;;;;3.65;3.10;;;;;;;;;;5023113;28;20033;-47
2023/04/30 14:19:49;;;;;;;5.00;3.67;;;;;;;;;;5024223;28;20029;-49
2023/04/30 14:22:15;;;;;;;4.55;2.90;;;;;;;;;;5024970;28;20041;-49
2023/04/30 14:24:40;;;;;;;4.53;3.13;;;;;;;;;;5026163;28;20033;-48
2023/04/30 14:27:06;;;;;;;3.30;2.92;;;;;;;;;;5021731;28;20045;-48
2023/04/30 14:29:31;;;;;;;4.55;2.80;;;;;;;;;;5024477;28;20052;-50
2023/04/30 14:31:57;;;;;;;2.83;2.38;;;;;;;;;;5021657;28;20493;-50
2023/04/30 14:34:23;;;;;;;3.00;2.67;;;;;;;;;;5023623;28;20048;-48
2023/04/30 14:36:48;;;;;;;2.85;2.65;;;;;;;;;;5025649;28;20040;-49
2023/04/30 14:39:14;;;;;;;3.83;2.30;;;;;;;;;;5024132;28;20030;-52
2023/04/30 14:41:39;;;;;;;3.17;2.15;;;;;;;;;;5022391;28;20660;-49